Time;durP1;ratioP1;P1;durP2;ratioP2;P2;SDS_P1;SDS_P2;PMS_P1;PMS_P2;Temp;Humidity;BMP_temperature;BMP_pressure;BME280_temperature;BME280_humidity;BME280_pressure;Samples;Min_cycle;Max_cycle;Signal;HPM_P1;HPM_P2
2023/01/26 00:00:56;;;;;;;5.30;4.80;;;;;;;;;;5120865;28;20249;-63
2023/01/26 00:03:23;;;;;;;5.60;5.10;;;;;;;;;;5120810;28;20203;-62
2023/01/26 00:05:51;;;;;;;5.47;4.93;;;;;;;;;;5120828;28;20203;-62
2023/01/26 00:08:19;;;;;;;5.43;4.93;;;;;;;;;;5120497;28;20717;-62
2023/01/26 00:10:50;;;;;;;5.47;4.97;;;;;;;;;;5120828;28;20203;-62
2023/01/26 00:13:19;;;;;;;6.10;5.40;;;;;;;;;;5120741;28;20203;-62
2023/01/26 00:15:47;;;;;;;5.70;5.10;;;;;;;;;;5120962;28;20203;-62
2023/01/26 00:18:16;;;;;;;5.53;5.03;;;;;;;;;;5120365;28;20608;-62
2023/01/26 00:20:44;;;;;;;5.80;5.20;;;;;;;;;;5120772;28;20203;-62
2023/01/26 00:23:11;;;;;;;5.78;5.18;;;;;;;;;;5120257;28;20613;-62
2023/01/26 00:25:40;;;;;;;5.63;5.03;;;;;;;;;;5120590;28;20249;-63
2023/01/26 00:28:07;;;;;;;5.55;5.03;;;;;;;;;;5120616;28;20227;-63
2023/01/26 00:30:35;;;;;;;5.80;5.18;;;;;;;;;;5120450;28;20203;-63
2023/01/26 00:33:03;;;;;;;6.03;5.32;;;;;;;;;;5120139;28;20689;-62
2023/01/26 00:35:32;;;;;;;5.60;5.10;;;;;;;;;;5120022;28;20203;-62
2023/01/26 00:38:00;;;;;;;5.85;5.25;;;;;;;;;;5120096;28;20218;-63
2023/01/26 00:40:27;;;;;;;5.68;5.07;;;;;;;;;;5120182;28;20210;-62
2023/01/26 00:42:55;;;;;;;5.43;4.93;;;;;;;;;;5120086;28;20203;-63
2023/01/26 00:45:23;;;;;;;6.30;5.30;;;;;;;;;;5119681;28;20252;-62
2023/01/26 00:47:50;;;;;;;6.30;5.70;;;;;;;;;;5119599;28;20287;-63
2023/01/26 00:50:18;;;;;;;5.70;5.13;;;;;;;;;;5120133;28;20234;-62
2023/01/26 00:52:47;;;;;;;5.25;4.75;;;;;;;;;;5119738;28;20301;-62
2023/01/26 00:55:15;;;;;;;5.45;4.95;;;;;;;;;;5119745;28;20203;-63
2023/01/26 00:57:43;;;;;;;5.70;5.03;;;;;;;;;;5120133;28;20199;-62
2023/01/26 01:00:15;;;;;;;5.45;4.95;;;;;;;;;;5119878;28;20284;-63
2023/01/26 01:02:43;;;;;;;5.43;4.93;;;;;;;;;;5119814;28;20206;-63
2023/01/26 01:05:10;;;;;;;5.55;5.05;;;;;;;;;;5119389;28;20203;-63
2023/01/26 01:07:38;;;;;;;6.32;5.72;;;;;;;;;;5119464;28;20266;-63
2023/01/26 01:10:08;;;;;;;6.05;5.45;;;;;;;;;;5119877;28;20267;-63
2023/01/26 01:12:36;;;;;;;5.28;4.78;;;;;;;;;;5119912;28;20499;-63
2023/01/26 01:15:03;;;;;;;5.78;5.18;;;;;;;;;;5119499;28;20216;-63
2023/01/26 01:17:31;;;;;;;6.43;5.75;;;;;;;;;;5119681;28;20206;-63
2023/01/26 01:19:58;;;;;;;5.97;5.32;;;;;;;;;;5119510;28;20203;-63
2023/01/26 01:22:26;;;;;;;5.97;5.07;;;;;;;;;;5119438;28;20203;-63
2023/01/26 01:24:54;;;;;;;6.03;5.30;;;;;;;;;;5120142;27;20210;-63
2023/01/26 01:27:23;;;;;;;6.10;5.50;;;;;;;;;;5140046;27;20286;-62
2023/01/26 01:29:50;;;;;;;6.80;5.80;;;;;;;;;;5140076;27;20216;-63
2023/01/26 01:32:18;;;;;;;5.40;4.90;;;;;;;;;;5140327;27;20203;-63
2023/01/26 01:34:47;;;;;;;6.35;5.22;;;;;;;;;;5139419;27;20202;-62
2023/01/26 01:37:15;;;;;;;6.00;5.40;;;;;;;;;;5139537;27;20625;-63
2023/01/26 01:39:43;;;;;;;6.00;5.28;;;;;;;;;;5139530;27;20209;-63
2023/01/26 01:42:11;;;;;;;6.13;5.53;;;;;;;;;;5139777;27;20210;-63
2023/01/26 01:44:40;;;;;;;6.18;5.50;;;;;;;;;;5139605;27;20201;-62
2023/01/26 01:47:11;;;;;;;6.40;5.57;;;;;;;;;;5139430;27;20213;-63
2023/01/26 01:49:40;;;;;;;6.22;5.43;;;;;;;;;;5139586;27;20594;-63
2023/01/26 01:52:10;;;;;;;6.30;5.70;;;;;;;;;;5139898;27;20213;-62
2023/01/26 01:54:40;;;;;;;6.63;5.93;;;;;;;;;;5139752;27;20201;-63
2023/01/26 01:57:14;;;;;;;6.78;6.07;;;;;;;;;;5139623;27;20287;-62
2023/01/26 01:59:44;;;;;;;6.35;5.63;;;;;;;;;;5139614;27;20202;-62
2023/01/26 02:02:11;;;;;;;6.00;5.40;;;;;;;;;;5139143;27;20252;-62
2023/01/26 02:04:39;;;;;;;6.65;5.95;;;;;;;;;;5139927;27;20475;-62
2023/01/26 02:07:07;;;;;;;5.93;5.32;;;;;;;;;;5139092;27;20209;-61
2023/01/26 02:12:22;;;;;;;6.20;5.60;;;;;;;;;;5138784;27;20642;-62
2023/01/26 02:14:53;;;;;;;6.38;5.60;;;;;;;;;;5139229;27;20206;-62
2023/01/26 02:17:20;;;;;;;6.30;5.70;;;;;;;;;;5139047;27;20213;-62
2023/01/26 02:19:52;;;;;;;7.07;5.93;;;;;;;;;;5139535;27;20570;-62
2023/01/26 02:22:24;;;;;;;6.88;6.18;;;;;;;;;;5139420;27;20235;-62
2023/01/26 02:24:52;;;;;;;6.72;5.80;;;;;;;;;;5139089;27;20305;-62
2023/01/26 02:27:22;;;;;;;5.90;5.28;;;;;;;;;;5138889;27;20272;-62
2023/01/26 02:29:49;;;;;;;5.85;5.25;;;;;;;;;;5139021;27;20293;-62
2023/01/26 02:32:17;;;;;;;6.05;5.45;;;;;;;;;;5139040;27;20263;-62
2023/01/26 02:34:45;;;;;;;6.18;5.53;;;;;;;;;;5138922;27;20206;-62
2023/01/26 02:37:15;;;;;;;6.13;5.25;;;;;;;;;;5138910;27;20213;-62
2023/01/26 02:39:46;;;;;;;6.47;5.75;;;;;;;;;;5138980;27;20220;-62
2023/01/26 02:45:00;;;;;;;6.15;5.55;;;;;;;;;;5138436;27;20193;-62
2023/01/26 02:47:28;;;;;;;6.13;5.50;;;;;;;;;;5139691;27;20447;-62
2023/01/26 02:49:57;;;;;;;7.00;5.65;;;;;;;;;;5142505;27;20220;-62
2023/01/26 02:52:25;;;;;;;6.90;5.78;;;;;;;;;;5143347;27;20263;-62
2023/01/26 02:57:38;;;;;;;6.50;5.90;;;;;;;;;;5142977;27;20193;-62
2023/01/26 03:00:11;;;;;;;7.20;5.75;;;;;;;;;;5142365;27;20209;-62
2023/01/26 03:02:39;;;;;;;6.78;6.05;;;;;;;;;;5141898;27;20206;-61
2023/01/26 03:05:07;;;;;;;5.80;5.30;;;;;;;;;;5142556;27;20202;-61
2023/01/26 03:07:35;;;;;;;6.10;5.50;;;;;;;;;;5142194;27;20239;-62
2023/01/26 03:10:03;;;;;;;6.00;5.38;;;;;;;;;;5142620;27;20205;-61
2023/01/26 03:12:30;;;;;;;6.32;5.70;;;;;;;;;;5142350;27;20505;-62
2023/01/26 03:17:45;;;;;;;6.60;5.90;;;;;;;;;;5141948;27;20235;-62
2023/01/26 03:28:28;;;;;;;6.82;6.13;;;;;;;;;;5141503;27;20771;-61
2023/01/26 03:30:57;;;;;;;6.25;5.57;;;;;;;;;;5141803;27;20586;-62
2023/01/26 03:33:26;;;;;;;6.40;5.47;;;;;;;;;;5141955;27;20206;-62
2023/01/26 03:35:55;;;;;;;6.22;5.63;;;;;;;;;;5141790;27;20206;-62
2023/01/26 03:38:22;;;;;;;6.35;5.72;;;;;;;;;;5142011;27;20229;-62
2023/01/26 03:57:22;;;;;;;7.10;5.63;;;;;;;;;;5141490;27;20238;-61
2023/01/26 03:59:52;;;;;;;6.47;5.70;;;;;;;;;;5141161;27;20206;-61
2023/01/26 04:10:38;;;;;;;6.40;5.55;;;;;;;;;;5141342;27;20197;-62
2023/01/26 04:21:29;;;;;;;6.63;5.95;;;;;;;;;;5140059;27;20395;-62
2023/01/26 04:23:57;;;;;;;6.20;5.60;;;;;;;;;;5139853;27;20210;-61
2023/01/26 04:26:25;;;;;;;5.82;5.15;;;;;;;;;;5140296;27;20241;-62
2023/01/26 04:28:52;;;;;;;6.30;5.65;;;;;;;;;;5140639;27;20324;-61
2023/01/26 04:31:20;;;;;;;6.75;6.07;;;;;;;;;;5140845;27;20210;-62
2023/01/26 04:33:48;;;;;;;6.47;5.65;;;;;;;;;;5140367;27;20194;-62
2023/01/26 04:36:15;;;;;;;6.65;5.95;;;;;;;;;;5140579;27;20570;-62
2023/01/26 04:38:45;;;;;;;6.70;5.72;;;;;;;;;;5140784;27;20198;-62
2023/01/26 04:41:12;;;;;;;6.28;5.63;;;;;;;;;;5140639;27;20221;-62
2023/01/26 04:43:40;;;;;;;7.28;5.93;;;;;;;;;;5119682;28;20276;-62
2023/01/26 04:46:08;;;;;;;6.05;5.40;;;;;;;;;;5120189;28;20203;-62
2023/01/26 04:48:36;;;;;;;6.63;5.85;;;;;;;;;;5119645;28;20227;-61
2023/01/26 04:51:06;;;;;;;5.82;5.22;;;;;;;;;;5119350;28;20280;-62
2023/01/26 04:53:34;;;;;;;6.50;5.63;;;;;;;;;;5138034;27;20213;-62
2023/01/26 04:56:03;;;;;;;6.55;5.68;;;;;;;;;;5140441;27;20209;-63
2023/01/26 04:58:31;;;;;;;6.28;5.68;;;;;;;;;;5139865;27;20209;-62
2023/01/26 05:00:58;;;;;;;6.78;5.85;;;;;;;;;;5140128;27;20297;-62
2023/01/26 05:03:26;;;;;;;6.15;5.40;;;;;;;;;;5139101;27;20206;-62
2023/01/26 05:05:55;;;;;;;6.55;5.85;;;;;;;;;;5139456;27;20206;-61
2023/01/26 05:08:22;;;;;;;6.50;5.85;;;;;;;;;;5139496;27;20542;-63
2023/01/26 05:10:50;;;;;;;6.82;5.78;;;;;;;;;;5138734;27;20480;-62
2023/01/26 05:13:19;;;;;;;6.72;6.03;;;;;;;;;;5139499;27;20199;-62
2023/01/26 05:15:47;;;;;;;6.78;6.07;;;;;;;;;;5139093;27;20653;-62
2023/01/26 05:18:16;;;;;;;6.40;5.78;;;;;;;;;;5139466;27;20230;-62
2023/01/26 05:20:43;;;;;;;6.95;5.68;;;;;;;;;;5138681;27;20597;-62
2023/01/26 05:23:10;;;;;;;6.30;5.70;;;;;;;;;;5138341;27;20202;-61
2023/01/26 05:25:37;;;;;;;6.50;5.55;;;;;;;;;;5138395;27;20222;-62
2023/01/26 05:28:05;;;;;;;6.15;5.55;;;;;;;;;;5138946;27;20206;-62
2023/01/26 05:30:35;;;;;;;7.05;6.22;;;;;;;;;;5138808;27;20202;-62
2023/01/26 05:33:03;;;;;;;6.65;5.93;;;;;;;;;;5138008;27;20198;-62
2023/01/26 05:35:31;;;;;;;6.38;5.78;;;;;;;;;;5138459;27;20225;-62
2023/01/26 05:37:58;;;;;;;7.10;6.03;;;;;;;;;;5138535;27;20202;-62
2023/01/26 05:40:26;;;;;;;6.75;6.05;;;;;;;;;;5138520;27;20221;-62
2023/01/26 05:42:53;;;;;;;6.80;6.10;;;;;;;;;;5137644;27;20209;-62
2023/01/26 05:45:21;;;;;;;6.97;5.90;;;;;;;;;;5137201;27;20225;-62
2023/01/26 05:47:50;;;;;;;6.40;5.75;;;;;;;;;;5136955;27;20213;-62
2023/01/26 05:50:17;;;;;;;6.90;5.70;;;;;;;;;;5137072;27;20633;-61
2023/01/26 05:52:46;;;;;;;6.75;6.03;;;;;;;;;;5137301;27;20270;-62
2023/01/26 05:55:14;;;;;;;6.72;5.80;;;;;;;;;;5137341;27;20203;-62
2023/01/26 05:57:41;;;;;;;6.93;5.93;;;;;;;;;;5136948;27;20213;-62
2023/01/26 06:00:09;;;;;;;7.90;6.38;;;;;;;;;;5137350;27;20686;-62
2023/01/26 06:02:36;;;;;;;6.80;6.10;;;;;;;;;;5136318;27;20194;-62
2023/01/26 06:05:06;;;;;;;7.47;6.25;;;;;;;;;;5136696;27;20206;-61
2023/01/26 06:07:33;;;;;;;6.38;5.43;;;;;;;;;;5136638;27;20494;-62
2023/01/26 06:10:00;;;;;;;6.07;5.38;;;;;;;;;;5136609;27;20229;-61
2023/01/26 06:12:30;;;;;;;6.57;5.68;;;;;;;;;;5135395;27;20198;-62
2023/01/26 06:14:57;;;;;;;6.50;5.75;;;;;;;;;;5136229;27;20216;-62
2023/01/26 06:17:25;;;;;;;7.35;5.90;;;;;;;;;;5136041;27;20465;-61
2023/01/26 06:19:52;;;;;;;6.15;5.55;;;;;;;;;;5136101;27;20225;-61
2023/01/26 06:22:21;;;;;;;6.93;5.90;;;;;;;;;;5136248;27;20197;-62
2023/01/26 06:24:48;;;;;;;7.57;6.30;;;;;;;;;;5135642;27;20198;-61
2023/01/26 06:27:16;;;;;;;6.50;5.63;;;;;;;;;;5136685;27;20261;-62
2023/01/26 06:29:43;;;;;;;6.20;5.50;;;;;;;;;;5135874;27;20225;-62
2023/01/26 06:32:11;;;;;;;6.05;5.45;;;;;;;;;;5136158;27;20668;-61
2023/01/26 06:34:38;;;;;;;7.00;5.60;;;;;;;;;;5135725;27;20225;-61
2023/01/26 06:37:06;;;;;;;7.20;6.20;;;;;;;;;;5135066;27;20198;-63
2023/01/26 06:39:35;;;;;;;8.20;7.03;;;;;;;;;;5125820;28;20294;-63
2023/01/26 06:42:02;;;;;;;8.05;6.78;;;;;;;;;;5112583;28;20600;-62
2023/01/26 06:44:30;;;;;;;8.20;6.75;;;;;;;;;;5134270;27;20198;-63
2023/01/26 06:46:57;;;;;;;7.68;6.68;;;;;;;;;;5131235;27;20590;-62
2023/01/26 06:49:24;;;;;;;7.93;6.80;;;;;;;;;;5134700;27;20218;-61
2023/01/26 06:51:59;;;;;;;7.15;6.32;;;;;;;;;;5135543;27;20198;-62
2023/01/26 06:54:27;;;;;;;8.15;6.85;;;;;;;;;;5135163;27;20289;-61
2023/01/26 06:56:55;;;;;;;8.38;7.10;;;;;;;;;;5134828;27;20209;-63
2023/01/26 06:59:23;;;;;;;8.27;7.10;;;;;;;;;;5134336;27;20197;-61
2023/01/26 07:01:50;;;;;;;8.60;6.93;;;;;;;;;;5135956;27;20198;-62
2023/01/26 07:04:18;;;;;;;8.23;7.07;;;;;;;;;;5135832;27;20203;-62
2023/01/26 07:06:46;;;;;;;8.43;6.93;;;;;;;;;;5134977;27;20284;-61
2023/01/26 07:09:13;;;;;;;8.60;7.45;;;;;;;;;;5135076;27;20288;-62
2023/01/26 07:11:40;;;;;;;8.80;7.63;;;;;;;;;;5134974;27;20229;-62
2023/01/26 07:14:09;;;;;;;8.60;6.82;;;;;;;;;;5135727;27;20202;-62
2023/01/26 07:16:36;;;;;;;7.82;6.47;;;;;;;;;;5135585;27;20209;-62
2023/01/26 07:19:04;;;;;;;9.15;7.68;;;;;;;;;;5135426;27;20198;-61
2023/01/26 07:21:31;;;;;;;9.57;8.18;;;;;;;;;;5135462;27;20205;-63
2023/01/26 07:23:58;;;;;;;11.18;9.13;;;;;;;;;;5134837;27;20712;-61
2023/01/26 07:26:26;;;;;;;10.90;8.88;;;;;;;;;;5135981;27;20245;-62
2023/01/26 07:28:57;;;;;;;10.23;9.18;;;;;;;;;;5135277;27;20198;-61
2023/01/26 07:31:26;;;;;;;19.52;17.42;;;;;;;;;;5114991;28;20205;-62
2023/01/26 07:33:53;;;;;;;21.77;19.48;;;;;;;;;;5116984;28;20203;-62
2023/01/26 07:36:21;;;;;;;21.85;18.65;;;;;;;;;;5119565;28;20214;-62
2023/01/26 07:38:49;;;;;;;19.20;17.02;;;;;;;;;;5126858;27;20237;-61
2023/01/26 07:41:16;;;;;;;21.60;17.45;;;;;;;;;;5139123;27;20507;-62
2023/01/26 07:43:43;;;;;;;18.38;16.33;;;;;;;;;;5139346;27;20229;-62
2023/01/26 07:46:11;;;;;;;18.58;15.85;;;;;;;;;;5139294;27;20202;-62
2023/01/26 07:48:40;;;;;;;17.65;15.73;;;;;;;;;;5138515;27;20232;-62
2023/01/26 07:51:09;;;;;;;17.30;15.50;;;;;;;;;;5138931;27;20218;-62
2023/01/26 07:53:38;;;;;;;18.20;14.75;;;;;;;;;;5139543;27;20300;-62
2023/01/26 07:56:06;;;;;;;16.25;14.30;;;;;;;;;;5139454;27;20534;-62
2023/01/26 07:58:34;;;;;;;16.58;13.90;;;;;;;;;;5138783;27;20236;-62
2023/01/26 08:01:05;;;;;;;15.02;13.18;;;;;;;;;;5138399;27;20208;-62
2023/01/26 08:03:32;;;;;;;15.50;13.63;;;;;;;;;;5138400;27;20221;-61
2023/01/26 08:06:01;;;;;;;14.90;12.70;;;;;;;;;;5138532;27;20216;-62
2023/01/26 08:08:28;;;;;;;14.60;12.20;;;;;;;;;;5138673;27;20202;-62
2023/01/26 08:11:00;;;;;;;15.00;12.75;;;;;;;;;;5138280;27;20225;-62
2023/01/26 08:13:27;;;;;;;14.20;12.25;;;;;;;;;;5138709;27;20241;-62
2023/01/26 08:15:55;;;;;;;14.02;12.32;;;;;;;;;;5138912;27;20675;-62
2023/01/26 08:18:22;;;;;;;12.95;11.40;;;;;;;;;;5138900;27;20625;-62
2023/01/26 08:20:52;;;;;;;12.80;10.70;;;;;;;;;;5138832;27;20230;-62
2023/01/26 08:23:21;;;;;;;13.50;11.20;;;;;;;;;;5137915;27;20217;-62
2023/01/26 08:25:49;;;;;;;12.52;11.13;;;;;;;;;;5138441;27;20230;-62
2023/01/26 08:28:16;;;;;;;13.57;11.07;;;;;;;;;;5137862;27;20214;-62
2023/01/26 08:30:44;;;;;;;11.70;10.50;;;;;;;;;;5138457;27;20237;-62
2023/01/26 08:33:11;;;;;;;12.68;10.05;;;;;;;;;;5138474;27;20787;-62
2023/01/26 08:35:38;;;;;;;12.70;10.20;;;;;;;;;;5138253;27;20234;-61
2023/01/26 08:38:05;;;;;;;11.30;10.05;;;;;;;;;;5138873;27;20201;-62
2023/01/26 08:40:34;;;;;;;10.35;9.27;;;;;;;;;;5138962;27;20198;-62
2023/01/26 08:43:02;;;;;;;12.40;10.20;;;;;;;;;;5138320;27;20656;-61
2023/01/26 08:45:30;;;;;;;10.75;9.60;;;;;;;;;;5138721;27;20217;-61
2023/01/26 08:47:57;;;;;;;10.63;9.48;;;;;;;;;;5137769;27;20207;-61
2023/01/26 08:50:25;;;;;;;10.35;9.13;;;;;;;;;;5138108;27;20258;-62
2023/01/26 08:52:52;;;;;;;9.98;8.75;;;;;;;;;;5137287;27;20287;-62
2023/01/26 08:55:20;;;;;;;9.90;8.90;;;;;;;;;;5138231;27;20221;-62
2023/01/26 08:57:53;;;;;;;11.27;8.93;;;;;;;;;;5137662;27;20209;-62
2023/01/26 09:00:21;;;;;;;10.50;9.40;;;;;;;;;;5137835;27;20607;-63
2023/01/26 09:02:49;;;;;;;9.52;8.52;;;;;;;;;;5137736;27;20214;-62
2023/01/26 09:05:16;;;;;;;9.95;8.95;;;;;;;;;;5137008;27;20748;-62
2023/01/26 09:07:44;;;;;;;10.20;8.88;;;;;;;;;;5136957;27;20198;-62
2023/01/26 09:10:12;;;;;;;9.57;8.15;;;;;;;;;;5136473;27;20784;-62
2023/01/26 09:12:39;;;;;;;9.32;8.20;;;;;;;;;;5137759;27;20233;-61
2023/01/26 09:15:09;;;;;;;8.98;8.05;;;;;;;;;;5137659;27;20581;-62
2023/01/26 09:17:37;;;;;;;9.35;8.38;;;;;;;;;;5136858;27;20210;-62
2023/01/26 09:20:04;;;;;;;8.98;8.02;;;;;;;;;;5136831;27;20202;-62
2023/01/26 09:22:32;;;;;;;9.32;7.80;;;;;;;;;;5136221;27;20191;-62
2023/01/26 09:24:59;;;;;;;8.65;7.65;;;;;;;;;;5136650;27;20206;-62
2023/01/26 09:27:27;;;;;;;9.82;7.80;;;;;;;;;;5137313;27;20194;-62
2023/01/26 09:29:54;;;;;;;9.43;7.85;;;;;;;;;;5136759;27;20229;-62
2023/01/26 09:32:23;;;;;;;9.50;7.50;;;;;;;;;;5137355;27;20700;-61
2023/01/26 09:34:50;;;;;;;10.55;7.80;;;;;;;;;;5137648;27;20213;-62
2023/01/26 09:37:18;;;;;;;8.52;7.60;;;;;;;;;;5137081;27;20632;-61
2023/01/26 09:39:45;;;;;;;9.27;7.45;;;;;;;;;;5137281;27;20198;-62
2023/01/26 09:42:24;;;;;;;9.38;7.53;;;;;;;;;;5137736;27;20705;-62
2023/01/26 09:44:53;;;;;;;9.18;6.78;;;;;;;;;;5137355;27;20202;-61
2023/01/26 09:47:23;;;;;;;9.13;7.63;;;;;;;;;;5136670;27;20466;-61
2023/01/26 09:52:47;;;;;;;7.72;6.63;;;;;;;;;;5437458;22;20294;-61
2023/01/26 09:55:17;;;;;;;7.93;6.90;;;;;;;;;;5056320;28;20253;-61
2023/01/26 09:57:48;;;;;;;13.20;11.57;;;;;;;;;;5054911;28;20209;-61
2023/01/26 10:00:20;;;;;;;10.27;9.27;;;;;;;;;;5055125;28;20612;-61
2023/01/26 10:02:53;;;;;;;10.43;9.38;;;;;;;;;;5055672;28;20280;-61
2023/01/26 10:05:23;;;;;;;10.18;9.18;;;;;;;;;;5056163;28;20204;-61
2023/01/26 10:07:52;;;;;;;10.02;8.38;;;;;;;;;;5055537;28;20215;-61
2023/01/26 10:10:22;;;;;;;10.85;9.52;;;;;;;;;;5054541;28;20228;-61
2023/01/26 10:12:50;;;;;;;9.07;8.27;;;;;;;;;;5054364;28;20197;-61
2023/01/26 10:15:30;;;;;;;9.40;8.50;;;;;;;;;;5054094;28;20212;-61
2023/01/26 10:17:57;;;;;;;9.73;8.77;;;;;;;;;;5054074;28;20205;-62
2023/01/26 10:20:28;;;;;;;10.18;8.90;;;;;;;;;;5054431;28;20258;-62
2023/01/26 10:23:00;;;;;;;9.40;8.15;;;;;;;;;;5054719;28;20220;-62
2023/01/26 10:25:30;;;;;;;8.75;7.80;;;;;;;;;;5054728;28;20200;-61
2023/01/26 10:27:59;;;;;;;8.57;7.78;;;;;;;;;;5054612;28;20608;-61
2023/01/26 10:30:26;;;;;;;8.40;7.47;;;;;;;;;;5054956;28;20233;-62
2023/01/26 10:32:54;;;;;;;8.30;7.47;;;;;;;;;;5053860;28;20626;-61
2023/01/26 10:35:22;;;;;;;8.77;7.88;;;;;;;;;;5053914;28;20271;-61
2023/01/26 10:37:51;;;;;;;8.38;7.53;;;;;;;;;;5053971;28;20205;-62
2023/01/26 10:40:20;;;;;;;8.15;7.35;;;;;;;;;;5054546;28;20197;-62
2023/01/26 10:42:56;;;;;;;8.25;7.45;;;;;;;;;;5054446;28;20483;-62
2023/01/26 10:45:28;;;;;;;8.80;7.85;;;;;;;;;;5053472;28;20236;-62
2023/01/26 10:48:05;;;;;;;8.38;7.50;;;;;;;;;;5053434;28;20286;-62
2023/01/26 10:50:33;;;;;;;8.85;7.50;;;;;;;;;;5054087;28;20230;-62
2023/01/26 10:53:02;;;;;;;7.60;6.90;;;;;;;;;;5063334;28;20658;-62
2023/01/26 10:55:31;;;;;;;8.05;7.25;;;;;;;;;;5073469;28;20577;-62
2023/01/26 10:57:59;;;;;;;7.47;6.78;;;;;;;;;;5074239;28;20205;-62
2023/01/26 11:00:28;;;;;;;8.00;7.20;;;;;;;;;;5074391;28;20585;-63
2023/01/26 11:02:56;;;;;;;7.18;6.47;;;;;;;;;;5073675;28;20212;-62
2023/01/26 11:05:24;;;;;;;9.52;8.32;;;;;;;;;;5073742;28;20214;-62
2023/01/26 11:07:54;;;;;;;12.90;9.93;;;;;;;;;;5072897;28;20204;-62
2023/01/26 11:10:26;;;;;;;10.15;8.73;;;;;;;;;;5077814;28;20242;-61
2023/01/26 11:13:08;;;;;;;10.07;8.45;;;;;;;;;;5077317;28;20299;-62
2023/01/26 11:15:38;;;;;;;11.07;9.10;;;;;;;;;;5077021;28;20204;-62
2023/01/26 11:18:12;;;;;;;9.00;8.00;;;;;;;;;;5077013;28;20200;-61
2023/01/26 11:20:47;;;;;;;9.90;7.93;;;;;;;;;;5077362;28;20307;-61
2023/01/26 11:23:20;;;;;;;9.75;8.30;;;;;;;;;;5077265;28;20213;-61
2023/01/26 11:25:58;;;;;;;9.45;7.88;;;;;;;;;;5077304;28;20200;-62
2023/01/26 11:28:33;;;;;;;8.48;7.57;;;;;;;;;;5077015;28;20196;-62
2023/01/26 11:31:13;;;;;;;9.05;7.93;;;;;;;;;;5076797;28;20230;-62
2023/01/26 11:33:46;;;;;;;8.18;7.32;;;;;;;;;;5076771;28;20204;-62
2023/01/26 11:36:22;;;;;;;10.95;7.45;;;;;;;;;;5075830;28;20235;-62
2023/01/26 11:38:55;;;;;;;9.48;7.28;;;;;;;;;;5076529;28;20204;-61
2023/01/26 11:41:30;;;;;;;8.85;7.85;;;;;;;;;;5076318;28;20200;-63
2023/01/26 11:44:05;;;;;;;8.23;7.18;;;;;;;;;;5076827;28;20573;-61
2023/01/26 11:46:40;;;;;;;7.93;7.13;;;;;;;;;;5077452;28;20667;-61
2023/01/26 11:49:16;;;;;;;7.82;7.00;;;;;;;;;;5076958;28;20743;-62
2023/01/26 11:51:51;;;;;;;7.65;6.75;;;;;;;;;;5075950;28;20236;-63
2023/01/26 11:54:25;;;;;;;8.65;6.82;;;;;;;;;;5077251;28;20498;-63
2023/01/26 11:56:56;;;;;;;7.40;6.63;;;;;;;;;;5076312;28;20211;-62
2023/01/26 11:59:27;;;;;;;8.02;6.93;;;;;;;;;;5076025;28;20205;-62
2023/01/26 12:01:59;;;;;;;7.70;6.90;;;;;;;;;;5076461;28;20201;-62
2023/01/26 12:04:27;;;;;;;7.60;6.47;;;;;;;;;;5076953;28;20325;-62
2023/01/26 12:07:00;;;;;;;7.60;6.80;;;;;;;;;;5076267;28;20204;-63
2023/01/26 12:09:32;;;;;;;6.40;5.78;;;;;;;;;;5075528;28;20233;-63
2023/01/26 12:12:04;;;;;;;6.85;6.10;;;;;;;;;;5075768;28;20323;-63
2023/01/26 12:14:36;;;;;;;7.30;6.40;;;;;;;;;;5075896;28;20200;-63
2023/01/26 12:17:13;;;;;;;7.82;6.15;;;;;;;;;;5076725;28;20205;-63
2023/01/26 12:19:44;;;;;;;7.30;5.88;;;;;;;;;;5074881;28;20196;-64
2023/01/26 12:22:14;;;;;;;6.93;6.13;;;;;;;;;;5076040;28;20200;-63
2023/01/26 12:24:44;;;;;;;7.25;6.13;;;;;;;;;;5075303;28;20204;-63
2023/01/26 12:27:17;;;;;;;6.45;5.75;;;;;;;;;;5074665;28;20215;-61
2023/01/26 12:29:49;;;;;;;6.60;5.90;;;;;;;;;;5076390;28;20293;-62
2023/01/26 12:32:16;;;;;;;6.78;5.88;;;;;;;;;;5075478;28;20220;-62
2023/01/26 12:34:44;;;;;;;6.93;5.22;;;;;;;;;;5076155;28;20204;-62
2023/01/26 12:37:22;;;;;;;6.55;5.60;;;;;;;;;;5075987;28;20207;-62
2023/01/26 12:39:56;;;;;;;6.65;5.32;;;;;;;;;;5075393;28;20207;-63
2023/01/26 12:42:27;;;;;;;6.05;5.45;;;;;;;;;;5075994;28;20203;-63
2023/01/26 12:44:59;;;;;;;8.38;5.78;;;;;;;;;;5075029;28;20227;-62
2023/01/26 12:47:31;;;;;;;6.43;5.30;;;;;;;;;;5074845;28;20201;-62
2023/01/26 12:50:00;;;;;;;6.03;5.20;;;;;;;;;;5075108;28;20201;-62
2023/01/26 12:52:29;;;;;;;6.10;5.47;;;;;;;;;;5074953;28;20228;-63
2023/01/26 12:54:59;;;;;;;5.60;5.00;;;;;;;;;;5075567;28;20228;-63
2023/01/26 12:57:31;;;;;;;5.68;5.07;;;;;;;;;;5075672;28;20208;-61
2023/01/26 13:00:07;;;;;;;5.85;5.22;;;;;;;;;;5075203;28;20204;-62
2023/01/26 13:02:36;;;;;;;5.20;4.70;;;;;;;;;;5075445;28;20200;-62
2023/01/26 13:05:06;;;;;;;5.15;4.63;;;;;;;;;;5075595;28;20547;-61
2023/01/26 13:07:37;;;;;;;5.90;5.13;;;;;;;;;;5074971;28;20212;-62
2023/01/26 13:10:20;;;;;;;6.38;5.22;;;;;;;;;;5075077;28;20213;-62
2023/01/26 13:12:49;;;;;;;4.60;4.20;;;;;;;;;;5074663;28;20267;-62
2023/01/26 13:15:18;;;;;;;5.18;4.68;;;;;;;;;;5074251;28;20200;-61
2023/01/26 13:17:49;;;;;;;4.95;4.45;;;;;;;;;;5074598;28;20215;-61
2023/01/26 13:20:23;;;;;;;4.40;3.95;;;;;;;;;;5074499;28;20265;-61
2023/01/26 13:22:51;;;;;;;4.97;4.32;;;;;;;;;;5074603;28;20595;-62
2023/01/26 13:25:19;;;;;;;10.52;7.68;;;;;;;;;;5074488;28;20202;-63
2023/01/26 13:27:48;;;;;;;11.60;9.45;;;;;;;;;;5073613;28;20200;-62
2023/01/26 13:30:33;;;;;;;9.68;7.38;;;;;;;;;;5072976;28;20204;-62
2023/01/26 13:33:11;;;;;;;10.02;7.22;;;;;;;;;;5074391;28;20227;-63
2023/01/26 13:35:39;;;;;;;8.50;7.00;;;;;;;;;;5073449;28;20204;-63
2023/01/26 13:38:12;;;;;;;7.80;6.25;;;;;;;;;;5074573;28;20208;-63
2023/01/26 13:40:42;;;;;;;8.10;6.13;;;;;;;;;;5074217;28;20206;-63
2023/01/26 13:43:13;;;;;;;8.63;6.30;;;;;;;;;;5075489;28;20216;-63
2023/01/26 13:45:46;;;;;;;8.15;6.40;;;;;;;;;;5075366;28;20201;-63
2023/01/26 13:48:16;;;;;;;7.28;6.00;;;;;;;;;;5073869;28;20196;-63
2023/01/26 13:50:44;;;;;;;8.85;6.28;;;;;;;;;;5073658;28;20766;-62
2023/01/26 13:53:40;;;;;;;6.70;5.68;;;;;;;;;;5074223;28;20235;-62
2023/01/26 13:56:08;;;;;;;7.32;5.95;;;;;;;;;;5038760;28;20204;-62
2023/01/26 13:58:35;;;;;;;7.88;5.78;;;;;;;;;;5074363;28;20204;-62
2023/01/26 14:01:04;;;;;;;7.28;5.88;;;;;;;;;;5074190;28;20614;-62
2023/01/26 14:03:33;;;;;;;6.15;5.40;;;;;;;;;;5073290;28;20201;-62
2023/01/26 14:06:03;;;;;;;7.10;5.60;;;;;;;;;;5073832;28;20211;-62
2023/01/26 14:08:32;;;;;;;6.68;5.97;;;;;;;;;;5073658;28;20204;-63
2023/01/26 14:11:00;;;;;;;7.05;6.03;;;;;;;;;;5073003;28;20719;-62
2023/01/26 14:13:33;;;;;;;7.88;5.45;;;;;;;;;;5073591;28;20204;-61
2023/01/26 14:16:01;;;;;;;7.72;5.53;;;;;;;;;;5073283;28;20200;-61
2023/01/26 14:18:29;;;;;;;5.85;5.00;;;;;;;;;;5073593;28;20215;-62
2023/01/26 14:21:02;;;;;;;6.45;5.40;;;;;;;;;;5073247;28;20208;-61
2023/01/26 14:23:34;;;;;;;5.65;4.90;;;;;;;;;;5073860;28;20200;-61
2023/01/26 14:26:02;;;;;;;6.55;4.88;;;;;;;;;;5073250;28;20499;-62
2023/01/26 14:28:33;;;;;;;6.60;5.22;;;;;;;;;;5073036;28;20478;-61
2023/01/26 14:31:03;;;;;;;5.65;4.75;;;;;;;;;;5073149;28;20204;-62
2023/01/26 14:33:31;;;;;;;6.80;5.15;;;;;;;;;;5073434;28;20638;-62
2023/01/26 14:36:01;;;;;;;6.13;4.90;;;;;;;;;;5073478;28;20514;-62
2023/01/26 14:38:31;;;;;;;5.15;4.57;;;;;;;;;;5073251;28;20234;-62
2023/01/26 14:41:00;;;;;;;5.65;4.75;;;;;;;;;;5073257;28;20241;-62
2023/01/26 14:43:27;;;;;;;6.15;4.65;;;;;;;;;;5077163;28;20230;-63
2023/01/26 14:45:57;;;;;;;5.75;4.78;;;;;;;;;;5077369;28;20196;-62
2023/01/26 14:48:27;;;;;;;5.10;4.50;;;;;;;;;;5077387;28;20211;-63
2023/01/26 14:50:54;;;;;;;5.47;4.70;;;;;;;;;;5077679;28;20200;-62
2023/01/26 14:53:24;;;;;;;5.85;5.00;;;;;;;;;;5076428;28;20236;-63
2023/01/26 14:55:53;;;;;;;4.95;4.45;;;;;;;;;;5077301;28;20195;-63
2023/01/26 14:58:22;;;;;;;5.65;4.47;;;;;;;;;;5076601;28;20720;-62
2023/01/26 15:00:49;;;;;;;5.30;4.03;;;;;;;;;;5076949;28;20212;-62
2023/01/26 15:03:23;;;;;;;5.40;4.43;;;;;;;;;;5075992;28;20210;-62
2023/01/26 15:06:04;;;;;;;5.35;4.50;;;;;;;;;;5076976;28;20580;-62
2023/01/26 15:08:33;;;;;;;24.50;19.38;;;;;;;;;;5076601;28;20201;-62
2023/01/26 15:13:42;;;;;;;39.15;31.58;;;;;;;;;;5076251;28;20210;-62
2023/01/26 15:16:14;;;;;;;35.95;28.27;;;;;;;;;;5075600;28;20200;-62
2023/01/26 15:18:42;;;;;;;33.65;27.30;;;;;;;;;;5076566;28;20277;-62
2023/01/26 15:21:14;;;;;;;32.45;25.73;;;;;;;;;;5068829;28;20204;-62
2023/01/26 15:23:44;;;;;;;32.58;26.02;;;;;;;;;;5077330;28;20648;-63
2023/01/26 15:26:13;;;;;;;29.40;24.10;;;;;;;;;;5061256;28;20210;-62
2023/01/26 15:28:41;;;;;;;30.33;23.40;;;;;;;;;;5077063;28;20211;-62
2023/01/26 15:31:10;;;;;;;27.40;22.10;;;;;;;;;;5076663;28;20204;-62
2023/01/26 15:33:44;;;;;;;27.92;21.88;;;;;;;;;;5077043;28;20622;-62
2023/01/26 15:36:23;;;;;;;27.70;22.42;;;;;;;;;;5076952;28;20206;-63
2023/01/26 15:38:51;;;;;;;25.08;20.75;;;;;;;;;;5077831;28;20196;-62
2023/01/26 15:41:19;;;;;;;24.83;21.08;;;;;;;;;;5077817;28;20606;-62
2023/01/26 15:43:47;;;;;;;25.90;20.35;;;;;;;;;;5077693;28;20500;-62
2023/01/26 15:46:14;;;;;;;23.58;19.00;;;;;;;;;;5076438;28;20208;-62
2023/01/26 15:48:41;;;;;;;22.45;18.02;;;;;;;;;;5076545;28;20200;-62